createdAt,value
2023-05-16T00:01:22.113Z,100784.53
2023-05-16T00:04:26.362Z,100792.53
2023-05-16T00:07:29.338Z,100786.22
2023-05-16T00:10:32.514Z,100791.56
2023-05-16T00:13:35.381Z,100795.97
2023-05-16T00:16:41.816Z,100787.00
2023-05-16T00:19:48.886Z,100797.69
2023-05-16T00:22:52.054Z,100789.66
2023-05-16T00:25:54.950Z,100797.69
2023-05-16T00:28:57.857Z,100793.31
2023-05-16T00:32:02.118Z,100795.97
2023-05-16T00:35:05.627Z,100797.84
2023-05-16T00:38:08.458Z,100793.44
2023-05-16T00:41:11.301Z,100797.09
2023-05-16T00:44:14.168Z,100792.69
2023-05-16T00:47:18.372Z,100794.41
2023-05-16T00:50:21.998Z,100796.13
2023-05-16T00:53:26.410Z,100784.53
2023-05-16T00:56:29.409Z,100787.19
2023-05-16T00:59:32.271Z,100794.31
2023-05-16T01:02:37.729Z,100791.66
2023-05-16T01:05:41.243Z,100787.19
2023-05-16T01:08:44.148Z,100798.78
2023-05-16T01:11:54.093Z,100800.69
2023-05-16T01:15:05.802Z,100799.91
2023-05-16T01:18:19.789Z,100813.34
2023-05-16T01:21:35.982Z,100811.59
2023-05-16T01:24:50.083Z,100812.47
2023-05-16T01:27:54.794Z,100811.53
2023-05-16T01:30:58.521Z,100814.19
2023-05-16T01:34:01.687Z,100820.38
2023-05-16T01:37:17.797Z,100826.56
2023-05-16T01:40:28.118Z,100826.56
2023-05-16T01:43:36.235Z,100831.91
2023-05-16T01:46:45.322Z,100831.91
2023-05-16T01:49:58.219Z,100832.88
2023-05-16T01:53:05.083Z,100828.56
2023-05-16T01:56:12.315Z,100834.91
2023-05-16T01:59:17.133Z,100834.91
2023-05-16T02:02:20.148Z,100841.22
2023-05-16T02:05:23.148Z,100848.25
2023-05-16T02:08:26.399Z,100839.38
2023-05-16T02:11:29.203Z,100838.44
2023-05-16T02:14:33.582Z,100850.81
2023-05-16T02:17:36.491Z,100847.31
2023-05-16T02:20:39.699Z,100838.44
2023-05-16T02:23:43.028Z,100851.78
2023-05-16T02:26:45.942Z,100859.78
2023-05-16T02:29:50.143Z,100859.09
2023-05-16T02:32:54.166Z,100859.16
2023-05-16T02:35:57.142Z,100866.28
2023-05-16T02:39:02.113Z,100864.56
2023-05-16T02:42:05.470Z,100864.56
2023-05-16T02:45:10.812Z,100873.44
2023-05-16T02:48:13.611Z,100880.59
2023-05-16T02:51:17.359Z,100877.91
2023-05-16T02:54:20.236Z,100892.13
2023-05-16T02:57:23.050Z,100886.78
2023-05-16T03:00:27.265Z,100890.28
2023-05-16T03:03:30.755Z,100898.28
2023-05-16T03:06:33.698Z,100909.94
2023-05-16T03:09:36.749Z,100915.34
2023-05-16T03:12:39.543Z,100909.16
2023-05-16T03:15:43.947Z,100910.06
2023-05-16T03:18:46.887Z,100907.41
2023-05-16T03:21:50.089Z,100906.56
2023-05-16T03:24:52.868Z,100919.03
2023-05-16T03:27:55.653Z,100918.94
2023-05-16T03:31:00.363Z,100922.56
2023-05-16T03:34:03.802Z,100926.16
2023-05-16T03:37:06.839Z,100932.38
2023-05-16T03:40:11.437Z,100942.16
2023-05-16T03:43:14.292Z,100931.50
2023-05-16T03:46:19.072Z,100931.59
2023-05-16T03:49:24.718Z,100939.59
2023-05-16T03:52:27.582Z,100932.50
2023-05-16T03:55:31.042Z,100934.25
2023-05-16T03:58:33.858Z,100946.63
2023-05-16T04:01:38.086Z,100954.72
2023-05-16T04:04:40.905Z,100955.59
2023-05-16T04:07:43.835Z,100957.38
2023-05-16T04:10:46.619Z,100950.38
2023-05-16T04:13:49.595Z,100953.06
2023-05-16T04:16:53.850Z,100959.25
2023-05-16T04:19:56.752Z,100972.59
2023-05-16T04:22:59.558Z,100962.84
2023-05-16T04:26:04.571Z,100970.84
2023-05-16T04:29:08.142Z,100971.72
2023-05-16T04:32:12.451Z,100977.06
2023-05-16T04:35:15.357Z,100982.41
2023-05-16T04:38:18.185Z,100996.59
2023-05-16T04:41:21.827Z,100993.94
2023-05-16T04:44:24.609Z,100997.53
2023-05-16T04:47:28.836Z,100997.53
2023-05-16T04:50:31.705Z,101008.19
2023-05-16T04:53:34.542Z,101005.59
2023-05-16T04:56:37.505Z,101019.81
2023-05-16T04:59:40.338Z,101024.28
2023-05-16T05:02:44.841Z,101026.94
2023-05-16T05:05:47.769Z,101026.94
2023-05-16T05:08:50.760Z,101035.91
2023-05-16T05:11:53.565Z,101045.63
2023-05-16T05:14:56.506Z,101042.94
2023-05-16T05:18:00.786Z,101055.38
2023-05-16T05:21:03.651Z,101053.63
2023-05-16T05:24:07.189Z,101062.56
2023-05-16T05:27:10.194Z,101068.75
2023-05-16T05:30:13.360Z,101075.91
2023-05-16T05:33:18.983Z,101079.50
2023-05-16T05:36:22.022Z,101089.25
2023-05-16T05:39:25.458Z,101093.72
2023-05-16T05:42:28.323Z,101094.56
2023-05-16T05:45:31.581Z,101101.72
2023-05-16T05:48:36.249Z,101103.50
2023-05-16T05:51:39.135Z,101113.25
2023-05-16T05:54:42.025Z,101117.63
2023-05-16T05:57:44.886Z,101131.91
2023-05-16T06:00:47.712Z,101126.59
2023-05-16T06:03:52.382Z,101135.50
2023-05-16T06:06:55.151Z,101141.72
2023-05-16T06:09:57.990Z,101146.97
2023-05-16T06:13:01.203Z,101146.19
2023-05-16T06:16:04.484Z,101151.50
2023-05-16T06:19:08.840Z,101151.50
2023-05-16T06:22:11.832Z,101154.19
2023-05-16T06:25:14.675Z,101156.84
2023-05-16T06:28:17.512Z,101168.38
2023-05-16T06:31:20.396Z,101170.09
2023-05-16T06:34:28.115Z,101172.75
2023-05-16T06:37:30.992Z,101163.06
2023-05-16T06:40:33.836Z,101174.59
2023-05-16T06:43:36.756Z,101169.25
2023-05-16T06:46:39.675Z,101174.59
2023-05-16T06:49:44.081Z,101193.25
2023-05-16T06:52:47.126Z,101198.59
2023-05-16T06:55:50.498Z,101199.38
2023-05-16T06:58:53.362Z,101210.06
2023-05-16T07:01:56.279Z,101207.31
2023-05-16T07:05:00.528Z,101214.31
2023-05-16T07:08:05.064Z,101208.03
2023-05-16T07:11:11.461Z,101215.09
2023-05-16T07:14:14.298Z,101222.16
2023-05-16T07:17:17.435Z,101216.81
2023-05-16T07:20:21.947Z,101216.78
2023-05-16T07:23:24.827Z,101214.03
2023-05-16T07:26:27.752Z,101220.28
2023-05-16T07:29:31.396Z,101230.91
2023-05-16T07:32:34.299Z,101238.03
2023-05-16T07:35:38.962Z,101245.94
2023-05-16T07:38:42.068Z,101246.81
2023-05-16T07:41:44.906Z,101250.28
2023-05-16T07:44:48.029Z,101255.63
2023-05-16T07:47:51.084Z,101263.53
2023-05-16T07:50:55.920Z,101259.09
2023-05-16T07:53:58.851Z,101262.53
2023-05-16T07:57:01.773Z,101259.88
2023-05-16T08:00:05.321Z,101266.09
2023-05-16T08:03:14.812Z,101261.63
2023-05-16T08:06:19.067Z,101275.81
2023-05-16T08:09:21.948Z,101276.69
2023-05-16T08:12:27.058Z,101283.75
2023-05-16T08:15:30.247Z,101283.75
2023-05-16T08:18:33.354Z,101279.25
2023-05-16T08:21:37.828Z,101278.34
2023-05-16T08:24:40.977Z,101282.81
2023-05-16T08:27:45.386Z,101291.69
2023-05-16T08:30:48.719Z,101288.94
2023-05-16T08:33:51.591Z,101299.59
2023-05-16T08:36:55.938Z,101295.16
2023-05-16T08:39:59.524Z,101307.56
2023-05-16T08:43:02.787Z,101307.56
2023-05-16T08:46:05.727Z,101307.56
2023-05-16T08:49:11.205Z,101310.25
2023-05-16T08:52:19.679Z,101306.63
2023-05-16T08:55:23.930Z,101311.06
2023-05-16T08:58:28.349Z,101317.38
2023-05-16T09:01:32.235Z,101320.13
2023-05-16T09:04:35.253Z,101322.72
2023-05-16T09:07:40.551Z,101323.63
2023-05-16T09:10:43.502Z,101326.16
2023-05-16T09:13:46.735Z,101331.50
2023-05-16T09:17:04.907Z,101321.72
2023-05-16T09:20:12.448Z,101312.81
2023-05-16T09:23:17.424Z,101318.16
2023-05-16T09:26:20.657Z,101312.81
2023-05-16T09:29:23.652Z,101313.69
2023-05-16T09:32:26.858Z,101320.84
2023-05-16T09:38:37.012Z,101324.41
2023-05-16T09:41:40.121Z,101336.84
2023-05-16T09:44:46.799Z,101337.75
2023-05-16T09:47:50.837Z,101339.44
2023-05-16T09:50:55.002Z,101339.44
2023-05-16T09:54:00.035Z,101348.31
2023-05-16T09:57:03.437Z,101358.03
2023-05-16T10:00:08.439Z,101370.53
2023-05-16T10:03:11.823Z,101368.72
2023-05-16T10:06:16.732Z,101378.47
2023-05-16T10:09:23.465Z,101366.91
2023-05-16T10:12:31.727Z,101381.13
2023-05-16T10:15:37.856Z,101382.84
2023-05-16T10:18:42.116Z,101378.38
2023-05-16T10:21:49.868Z,101379.34
2023-05-16T10:25:02.230Z,101369.50
2023-05-16T10:28:06.330Z,101377.50
2023-05-16T10:31:11.029Z,101378.47
2023-05-16T10:34:14.575Z,101379.38
2023-05-16T10:37:20.669Z,101383.00
2023-05-16T10:40:25.757Z,101383.00
2023-05-16T10:43:31.075Z,101388.34
2023-05-16T10:46:34.167Z,101383.00
2023-05-16T10:49:42.385Z,101387.47
2023-05-16T10:52:45.343Z,101383.00
2023-05-16T10:56:10.157Z,101393.69
2023-05-16T10:59:28.824Z,101399.00
2023-05-16T11:02:34.701Z,101391.88
2023-05-16T11:05:38.281Z,101386.59
2023-05-16T11:08:59.391Z,101383.00
2023-05-16T11:12:04.026Z,101388.34
2023-05-16T11:15:20.546Z,101386.59
2023-05-16T11:18:25.023Z,101386.66
2023-05-16T11:22:01.052Z,101388.47
2023-05-16T11:25:06.004Z,101396.53
2023-05-16T11:28:13.408Z,101392.09
2023-05-16T11:31:16.369Z,101393.00
2023-05-16T11:34:20.154Z,101401.00
2023-05-16T11:37:23.219Z,101388.63
2023-05-16T11:40:27.828Z,101390.41
2023-05-16T11:43:38.621Z,101400.16
2023-05-16T11:46:42.150Z,101404.63
2023-05-16T11:49:46.064Z,101403.75
2023-05-16T11:52:53.595Z,101408.16
2023-05-16T11:56:00.103Z,101412.56
2023-05-16T11:59:04.644Z,101413.50
2023-05-16T12:02:09.646Z,101422.34
2023-05-16T12:05:13.044Z,101421.50
2023-05-16T12:08:17.348Z,101425.97
2023-05-16T12:11:21.748Z,101423.31
2023-05-16T12:14:26.755Z,101429.56
2023-05-16T12:17:29.711Z,101421.72
2023-05-16T12:20:33.243Z,101428.97
2023-05-16T12:23:36.233Z,101429.03
2023-05-16T12:26:41.201Z,101431.69
2023-05-16T12:29:49.725Z,101434.28
2023-05-16T12:32:58.348Z,101429.84
2023-05-16T12:36:01.812Z,101442.25
2023-05-16T12:39:05.450Z,101441.31
2023-05-16T12:42:09.654Z,101450.09
2023-05-16T12:45:18.218Z,101451.84
2023-05-16T12:48:21.119Z,101445.56
2023-05-16T12:51:24.128Z,101447.31
2023-05-16T12:54:26.993Z,101449.03
2023-05-16T12:57:29.883Z,101449.00
2023-05-16T13:00:34.237Z,101449.84
2023-05-16T13:03:37.602Z,101445.38
2023-05-16T13:06:57.768Z,101448.91
2023-05-16T13:10:01.847Z,101454.25
2023-05-16T13:13:04.719Z,101455.97
2023-05-16T13:16:10.257Z,101458.63
2023-05-16T13:19:13.238Z,101455.06
2023-05-16T13:22:16.127Z,101445.25
2023-05-16T13:25:18.984Z,101435.41
2023-05-16T13:28:21.852Z,101437.16
2023-05-16T13:31:26.265Z,101434.50
2023-05-16T13:34:29.507Z,101431.84
2023-05-16T13:37:32.375Z,101430.88
2023-05-16T13:40:36.578Z,101422.88
2023-05-16T13:43:39.386Z,101419.28
2023-05-16T13:46:43.689Z,101421.09
2023-05-16T13:49:47.486Z,101428.09
2023-05-16T13:52:50.375Z,101429.03
2023-05-16T13:55:53.181Z,101431.72
2023-05-16T13:59:03.854Z,101434.38
2023-05-16T14:02:10.985Z,101427.28
2023-05-16T14:05:13.981Z,101431.72
2023-05-16T14:08:16.891Z,101425.44
2023-05-16T14:11:19.969Z,101425.44
2023-05-16T14:14:22.818Z,101430.75
2023-05-16T14:17:27.138Z,101427.19
2023-05-16T14:20:30.148Z,101427.19
2023-05-16T14:23:33.061Z,101430.69
2023-05-16T14:26:35.977Z,101423.56
2023-05-16T14:29:38.873Z,101423.56
2023-05-16T14:32:43.282Z,101425.31
2023-05-16T14:35:49.196Z,101432.44
2023-05-16T14:38:52.067Z,101432.44
2023-05-16T14:41:54.942Z,101437.78
2023-05-16T14:44:57.842Z,101432.44
2023-05-16T14:48:02.280Z,101430.63
2023-05-16T14:51:05.361Z,101433.31
2023-05-16T14:54:08.478Z,101429.75
2023-05-16T14:57:11.401Z,101424.44
2023-05-16T15:00:17.008Z,101434.22
2023-05-16T15:03:21.422Z,101435.09
2023-05-16T15:06:24.397Z,101430.63
2023-05-16T15:09:27.271Z,101428.78
2023-05-16T15:12:30.126Z,101425.16
2023-05-16T15:15:33.133Z,101424.28
2023-05-16T15:18:37.473Z,101419.81
2023-05-16T15:21:40.654Z,101421.56
2023-05-16T15:24:43.635Z,101423.28
2023-05-16T15:27:46.522Z,101423.28
2023-05-16T15:30:49.418Z,101417.94
2023-05-16T15:33:53.692Z,101424.16
2023-05-16T15:36:56.639Z,101425.03
2023-05-16T15:39:59.744Z,101431.25
2023-05-16T15:43:02.631Z,101432.09
2023-05-16T15:46:07.125Z,101438.28
2023-05-16T15:49:12.890Z,101432.09
2023-05-16T15:52:15.764Z,101422.28
2023-05-16T15:55:18.802Z,101420.50
2023-05-16T15:58:22.768Z,101426.75
2023-05-16T16:01:25.956Z,101427.69
2023-05-16T16:04:30.456Z,101429.50
2023-05-16T16:07:33.351Z,101434.91
2023-05-16T16:10:36.359Z,101436.78
2023-05-16T16:13:39.270Z,101435.03
2023-05-16T16:16:42.659Z,101435.09
2023-05-16T16:19:46.971Z,101436.97
2023-05-16T16:22:49.822Z,101445.84
2023-05-16T16:25:53.011Z,101434.38
2023-05-16T16:28:55.851Z,101435.22
2023-05-16T16:31:58.891Z,101430.75
2023-05-16T16:35:05.292Z,101429.03
2023-05-16T16:38:08.178Z,101426.38
2023-05-16T16:41:11.519Z,101431.72
2023-05-16T16:44:14.471Z,101432.63
2023-05-16T16:47:17.435Z,101443.31
2023-05-16T16:50:21.683Z,101430.97
2023-05-16T16:53:24.540Z,101438.09
2023-05-16T16:56:28.031Z,101431.03
2023-05-16T16:59:31.003Z,101427.50
2023-05-16T17:02:33.896Z,101428.50
2023-05-16T17:05:38.227Z,101425.81
2023-05-16T17:08:41.096Z,101426.78
2023-05-16T17:11:44.615Z,101434.84
2023-05-16T17:14:48.697Z,101431.31
2023-05-16T17:17:52.033Z,101426.91
2023-05-16T17:20:56.979Z,101428.69
2023-05-16T17:23:59.853Z,101427.84
2023-05-16T17:27:02.777Z,101429.63
2023-05-16T17:30:06.696Z,101431.44
2023-05-16T17:33:09.877Z,101435.84
2023-05-16T17:36:14.335Z,101434.91
2023-05-16T17:39:17.692Z,101442.09
2023-05-16T17:42:20.664Z,101449.19
2023-05-16T17:45:23.611Z,101459.88
2023-05-16T17:48:27.729Z,101468.78
2023-05-16T17:51:46.352Z,101468.78
2023-05-16T17:54:49.207Z,101471.44
2023-05-16T17:57:52.065Z,101488.34
2023-05-16T18:00:55.427Z,101484.78
2023-05-16T18:03:58.359Z,101491.88
2023-05-16T18:07:02.787Z,101486.53
2023-05-16T18:10:06.286Z,101493.59
2023-05-16T18:13:09.450Z,101500.69
2023-05-16T18:16:12.671Z,101502.38
2023-05-16T18:19:16.386Z,101509.50
2023-05-16T18:22:21.062Z,101516.56
2023-05-16T18:25:24.060Z,101521.88
2023-05-16T18:28:27.002Z,101525.34
2023-05-16T18:31:30.579Z,101535.19
2023-05-16T18:34:34.066Z,101544.91
2023-05-16T18:37:38.368Z,101548.47
2023-05-16T18:40:41.296Z,101555.50
2023-05-16T18:43:44.359Z,101559.06
2023-05-16T18:46:47.826Z,101560.84
2023-05-16T18:49:50.746Z,101560.84
2023-05-16T18:52:57.495Z,101568.81
2023-05-16T18:56:00.547Z,101575.94
2023-05-16T18:59:03.443Z,101569.66
2023-05-16T19:02:06.338Z,101577.66
2023-05-16T19:05:10.436Z,101577.66
2023-05-16T19:08:15.007Z,101592.75
2023-05-16T19:11:18.469Z,101598.09
2023-05-16T19:14:21.407Z,101592.75
2023-05-16T19:17:24.405Z,101598.97
2023-05-16T19:20:27.614Z,101604.31
2023-05-16T19:23:32.127Z,101615.00
2023-05-16T19:26:34.990Z,101622.13
2023-05-16T19:29:37.852Z,101626.53
2023-05-16T19:32:41.034Z,101615.00
2023-05-16T19:35:44.011Z,101621.22
2023-05-16T19:38:48.218Z,101631.00
2023-05-16T19:41:52.107Z,101638.06
2023-05-16T19:44:55.317Z,101647.81
2023-05-16T19:47:58.284Z,101646.16
2023-05-16T19:51:01.351Z,101646.16
2023-05-16T19:54:05.899Z,101648.81
2023-05-16T19:57:08.797Z,101647.06
2023-05-16T20:00:13.084Z,101653.34
2023-05-16T20:03:16.135Z,101650.69
2023-05-16T20:06:19.067Z,101655.13
2023-05-16T20:09:23.337Z,101643.59
2023-05-16T20:12:26.299Z,101655.22
2023-05-16T20:15:29.515Z,101645.41
2023-05-16T20:18:32.773Z,101654.34
2023-05-16T20:21:35.613Z,101659.66
2023-05-16T20:24:40.040Z,101658.78
2023-05-16T20:27:42.913Z,101657.94
2023-05-16T20:30:45.832Z,101667.75
2023-05-16T20:33:50.181Z,101666.00
2023-05-16T20:36:53.159Z,101666.88
2023-05-16T20:39:57.403Z,101673.19
2023-05-16T20:43:00.268Z,101678.53
2023-05-16T20:46:03.135Z,101676.81
2023-05-16T20:49:06.210Z,101678.59
2023-05-16T20:52:09.614Z,101677.72
2023-05-16T20:55:13.852Z,101674.19
2023-05-16T20:58:16.721Z,101672.44
2023-05-16T21:01:19.631Z,101677.78
2023-05-16T21:04:22.590Z,101686.69
2023-05-16T21:07:25.578Z,101681.34
2023-05-16T21:10:29.815Z,101684.00
2023-05-16T21:13:32.665Z,101688.47
2023-05-16T21:16:35.768Z,101692.00
2023-05-16T21:19:39.170Z,101697.38
2023-05-16T21:22:42.558Z,101703.66
2023-05-16T21:25:46.772Z,101701.88
2023-05-16T21:28:55.187Z,101708.13
2023-05-16T21:31:59.006Z,101710.78
2023-05-16T21:35:04.168Z,101710.88
2023-05-16T21:38:07.102Z,101709.19
2023-05-16T21:41:11.493Z,101712.78
2023-05-16T21:44:17.142Z,101709.25
2023-05-16T21:47:20.064Z,101707.50
2023-05-16T21:50:22.869Z,101705.69
2023-05-16T21:53:26.243Z,101702.16
2023-05-16T21:56:30.710Z,101709.28
2023-05-16T21:59:33.574Z,101705.69
2023-05-16T22:02:37.018Z,101709.28
2023-05-16T22:05:40.098Z,101711.09
2023-05-16T22:08:43.206Z,101709.28
2023-05-16T22:11:47.400Z,101703.94
2023-05-16T22:14:50.326Z,101717.34
2023-05-16T22:17:53.254Z,101716.47
2023-05-16T22:20:56.613Z,101715.66
2023-05-16T22:23:59.468Z,101721.00
2023-05-16T22:27:03.848Z,101718.34
2023-05-16T22:30:08.093Z,101708.53
2023-05-16T22:33:11.053Z,101714.75
2023-05-16T22:36:13.992Z,101709.41
2023-05-16T22:39:16.809Z,101709.41
2023-05-16T22:42:21.038Z,101713.00
2023-05-16T22:45:23.892Z,101713.00
2023-05-16T22:48:26.750Z,101711.28
2023-05-16T22:51:29.629Z,101717.53
2023-05-16T22:54:32.522Z,101715.00
2023-05-16T22:57:36.832Z,101723.91
2023-05-16T23:00:39.750Z,101724.84
2023-05-16T23:03:42.637Z,101721.31
2023-05-16T23:06:45.549Z,101723.97
2023-05-16T23:09:48.475Z,101727.53
2023-05-16T23:12:52.680Z,101728.44
2023-05-16T23:15:55.758Z,101724.84
2023-05-16T23:18:58.750Z,101724.03
2023-05-16T23:22:01.639Z,101724.97
2023-05-16T23:25:04.897Z,101726.72
2023-05-16T23:28:09.148Z,101732.91
2023-05-16T23:31:12.001Z,101737.41
2023-05-16T23:34:14.862Z,101735.63
2023-05-16T23:37:17.700Z,101736.56
2023-05-16T23:40:20.665Z,101743.63
2023-05-16T23:43:25.107Z,101754.31
2023-05-16T23:46:28.044Z,101752.56
2023-05-16T23:49:30.876Z,101743.63
2023-05-16T23:52:34.426Z,101740.16
2023-05-16T23:55:37.361Z,101745.50
2023-05-16T23:58:41.651Z,101747.25
